Time;durP1;ratioP1;P1;durP2;ratioP2;P2;SDS_P1;SDS_P2;PMS_P1;PMS_P2;Temp;Humidity;BMP_temperature;BMP_pressure;BME280_temperature;BME280_humidity;BME280_pressure;Samples;Min_cycle;Max_cycle;Signal;HPM_P1;HPM_P2
2021/04/11 00:01:10;;;;;;;9.35;8.07;;;11.70;83.70;;;;;;5032553;28;20205;-42
2021/04/11 00:03:38;;;;;;;9.52;8.52;;;11.60;84.00;;;;;;5032273;28;20288;-42
2021/04/11 00:06:05;;;;;;;9.27;8.35;;;11.60;84.40;;;;;;5032122;28;20209;-42
2021/04/11 00:08:32;;;;;;;10.40;9.38;;;11.60;84.70;;;;;;5032143;28;20283;-43
2021/04/11 00:11:02;;;;;;;9.98;9.02;;;11.60;84.90;;;;;;5031945;28;20247;-46
2021/04/11 00:13:31;;;;;;;12.32;9.13;;;11.60;85.10;;;;;;5032292;28;20282;-45
2021/04/11 00:15:58;;;;;;;14.50;10.43;;;11.70;85.20;;;;;;5032106;28;20299;-42
2021/04/11 00:18:26;;;;;;;10.25;9.25;;;11.70;85.10;;;;;;5032224;28;20304;-43
2021/04/11 00:20:54;;;;;;;11.63;9.48;;;11.80;85.20;;;;;;5032302;28;20346;-46
2021/04/11 00:23:22;;;;;;;13.10;10.05;;;11.80;85.20;;;;;;5031954;28;20207;-43
2021/04/11 00:25:49;;;;;;;10.80;9.68;;;11.80;85.40;;;;;;5031852;28;20303;-43
2021/04/11 00:28:17;;;;;;;12.85;10.10;;;11.70;85.50;;;;;;5032060;28;20616;-43
2021/04/11 00:30:44;;;;;;;12.93;10.55;;;11.70;85.60;;;;;;5032208;28;20232;-46
2021/04/11 00:33:22;;;;;;;15.57;10.30;;;11.80;85.60;;;;;;5032065;28;20315;-47
2021/04/11 00:35:57;;;;;;;11.88;10.02;;;11.80;86.00;;;;;;5031908;28;20705;-45
2021/04/11 00:38:25;;;;;;;12.20;10.75;;;11.70;86.30;;;;;;5032098;28;20295;-46
2021/04/11 00:40:56;;;;;;;14.23;8.85;;;11.70;86.60;;;;;;5031761;28;20671;-42
2021/04/11 00:43:24;;;;;;;16.38;10.55;;;11.60;86.80;;;;;;5031886;28;20200;-45
2021/04/11 00:45:57;;;;;;;11.27;9.98;;;11.60;87.20;;;;;;5031902;28;20295;-43
2021/04/11 00:48:27;;;;;;;11.98;10.57;;;11.60;87.50;;;;;;5031836;28;20205;-46
2021/04/11 00:50:58;;;;;;;15.23;9.85;;;11.50;87.70;;;;;;5031880;28;20255;-44
2021/04/11 00:53:26;;;;;;;14.68;10.13;;;11.50;88.10;;;;;;5031961;28;20228;-45
2021/04/11 00:55:53;;;;;;;11.95;9.02;;;11.50;88.40;;;;;;5031828;28;20205;-43
2021/04/11 00:58:24;;;;;;;12.88;10.70;;;11.40;88.50;;;;;;5031677;28;20211;-43
2021/04/11 01:00:51;;;;;;;12.55;9.30;;;11.40;88.80;;;;;;5031645;28;20303;-45
2021/04/11 01:03:20;;;;;;;11.65;8.98;;;11.40;89.00;;;;;;5034041;28;20652;-44
2021/04/11 01:05:48;;;;;;;10.98;9.55;;;11.40;89.10;;;;;;5035597;28;20208;-45
2021/04/11 01:08:19;;;;;;;10.93;9.10;;;11.40;89.30;;;;;;5035554;28;20205;-44
2021/04/11 01:10:52;;;;;;;11.32;10.13;;;11.40;89.50;;;;;;5035610;28;20239;-43
2021/04/11 01:13:21;;;;;;;11.35;9.73;;;11.40;89.60;;;;;;5035412;28;20713;-41
2021/04/11 01:15:48;;;;;;;12.05;9.55;;;11.50;89.70;;;;;;5035475;28;20480;-42
2021/04/11 01:18:15;;;;;;;16.98;13.18;;;11.40;89.60;;;;;;5035724;28;20217;-42
2021/04/11 01:20:42;;;;;;;14.13;10.43;;;11.50;89.60;;;;;;5035189;28;20303;-44
2021/04/11 01:23:20;;;;;;;11.65;10.15;;;11.50;89.50;;;;;;5035485;28;20244;-42
2021/04/11 01:25:50;;;;;;;10.10;8.20;;;11.60;89.50;;;;;;5035100;28;20299;-43
2021/04/11 01:28:21;;;;;;;13.27;11.02;;;11.60;89.50;;;;;;5026425;28;20310;-41
2021/04/11 01:30:49;;;;;;;9.65;8.68;;;11.60;89.40;;;;;;5015483;28;20252;-43
2021/04/11 01:33:18;;;;;;;9.18;7.65;;;11.60;89.50;;;;;;5015375;28;20316;-43
2021/04/11 01:35:47;;;;;;;9.55;7.95;;;11.50;89.40;;;;;;5015293;28;20240;-42
2021/04/11 01:38:15;;;;;;;9.65;7.70;;;11.60;89.50;;;;;;5015352;28;20209;-42
2021/04/11 01:40:49;;;;;;;11.80;10.50;;;11.60;89.40;;;;;;5015252;28;20213;-42
2021/04/11 01:43:17;;;;;;;8.88;7.95;;;11.60;89.40;;;;;;5015120;28;20291;-43
2021/04/11 01:45:45;;;;;;;10.27;7.25;;;11.60;89.30;;;;;;5015374;28;20240;-44
2021/04/11 01:48:13;;;;;;;10.43;7.07;;;11.60;89.30;;;;;;5015044;28;20645;-42
2021/04/11 01:50:41;;;;;;;11.88;7.82;;;11.60;89.20;;;;;;5015078;28;20300;-42
2021/04/11 01:53:09;;;;;;;7.95;7.15;;;11.60;89.20;;;;;;5014935;28;20366;-43
2021/04/11 01:55:37;;;;;;;8.63;7.70;;;11.70;89.30;;;;;;5014900;28;20691;-43
2021/04/11 01:58:05;;;;;;;8.93;7.75;;;11.60;89.30;;;;;;5015080;28;20588;-43
2021/04/11 02:00:35;;;;;;;8.02;7.25;;;11.60;89.40;;;;;;5014962;28;20296;-44
2021/04/11 02:03:06;;;;;;;8.38;7.50;;;11.60;89.50;;;;;;5014744;28;20308;-42
2021/04/11 02:05:37;;;;;;;8.20;7.38;;;11.60;89.50;;;;;;5014741;28;20216;-42
2021/04/11 02:08:06;;;;;;;10.93;9.23;;;11.60;89.50;;;;;;5015016;28;20205;-42
2021/04/11 02:10:34;;;;;;;14.68;12.27;;;11.60;89.50;;;;;;5014552;28;20767;-41
2021/04/11 02:13:01;;;;;;;8.57;7.78;;;11.60;89.60;;;;;;5014444;28;20319;-42
2021/04/11 02:15:33;;;;;;;9.23;8.15;;;11.60;89.60;;;;;;5013659;28;20236;-43
2021/04/11 02:18:01;;;;;;;8.75;7.45;;;11.60;89.70;;;;;;5014577;28;20364;-42
2021/04/11 02:20:31;;;;;;;8.57;7.70;;;11.60;89.70;;;;;;5014408;28;20663;-43
2021/04/11 02:22:58;;;;;;;7.80;7.00;;;11.60;89.80;;;;;;5014455;28;20300;-42
2021/04/11 02:25:29;;;;;;;10.93;8.38;;;11.60;90.00;;;;;;5014543;28;20629;-43
2021/04/11 02:27:57;;;;;;;8.27;7.47;;;11.50;90.10;;;;;;5014265;28;20249;-41
2021/04/11 02:30:25;;;;;;;13.07;11.25;;;11.50;90.20;;;;;;5014314;28;20213;-42
2021/04/11 02:32:55;;;;;;;9.65;7.93;;;11.40;90.30;;;;;;5013986;28;20666;-41
2021/04/11 02:35:26;;;;;;;8.15;7.07;;;11.40;90.40;;;;;;5014236;28;20304;-42
2021/04/11 02:37:56;;;;;;;10.60;8.02;;;11.40;90.40;;;;;;5014231;28;20743;-41
2021/04/11 02:40:27;;;;;;;10.10;9.10;;;11.40;90.50;;;;;;5013504;28;20224;-42
2021/04/11 02:42:57;;;;;;;9.13;8.00;;;11.40;90.60;;;;;;5027500;28;20244;-43
2021/04/11 02:45:27;;;;;;;10.20;7.80;;;11.30;90.70;;;;;;5033778;28;20199;-40
2021/04/11 02:47:55;;;;;;;8.77;7.03;;;11.30;90.80;;;;;;5033927;28;20236;-41
2021/04/11 02:50:27;;;;;;;9.63;7.72;;;11.30;90.90;;;;;;5033833;28;20215;-42
2021/04/11 02:52:58;;;;;;;9.25;8.35;;;11.30;90.90;;;;;;5033586;28;20313;-41
2021/04/11 02:55:29;;;;;;;8.10;7.30;;;11.30;91.30;;;;;;5033832;28;20295;-40
2021/04/11 02:57:57;;;;;;;9.55;8.15;;;11.20;91.10;;;;;;5033872;28;20232;-42
2021/04/11 03:00:29;;;;;;;9.05;7.50;;;11.20;91.30;;;;;;5033639;28;20240;-42
2021/04/11 03:02:56;;;;;;;10.32;7.75;;;11.10;91.40;;;;;;5033830;28;20292;-42
2021/04/11 03:05:26;;;;;;;8.40;7.43;;;11.00;91.50;;;;;;5033517;28;20213;-41
2021/04/11 03:08:02;;;;;;;11.80;7.57;;;11.00;91.70;;;;;;5033296;28;20691;-41
2021/04/11 03:10:35;;;;;;;8.70;7.13;;;10.90;91.90;;;;;;5033360;28;20244;-41
2021/04/11 03:13:04;;;;;;;12.60;7.72;;;10.90;92.00;;;;;;5033407;28;20354;-41
2021/04/11 03:15:32;;;;;;;8.27;7.47;;;10.80;92.20;;;;;;5033400;28;20205;-41
2021/04/11 03:17:59;;;;;;;8.45;7.65;;;10.80;92.30;;;;;;5033264;28;20319;-41
2021/04/11 03:20:30;;;;;;;8.43;7.25;;;10.80;92.40;;;;;;5033033;28;20231;-40
2021/04/11 03:23:07;;;;;;;8.23;7.45;;;10.80;92.50;;;;;;5033084;28;20679;-40
2021/04/11 03:25:37;;;;;;;8.02;7.22;;;10.80;92.60;;;;;;5032478;28;20255;-40
2021/04/11 03:28:09;;;;;;;9.13;7.55;;;10.80;93.00;;;;;;5033037;28;20680;-41
2021/04/11 03:30:40;;;;;;;8.98;7.53;;;10.70;92.70;;;;;;5033024;28;20208;-43
2021/04/11 03:33:10;;;;;;;7.80;7.03;;;10.70;92.80;;;;;;5032777;28;20235;-41
2021/04/11 03:35:41;;;;;;;11.02;7.32;;;10.70;93.00;;;;;;5032856;28;20699;-41
2021/04/11 03:38:10;;;;;;;9.45;7.63;;;10.70;93.10;;;;;;5032967;28;20231;-41
2021/04/11 03:40:40;;;;;;;9.95;8.95;;;10.70;93.30;;;;;;5032949;28;20213;-41
2021/04/11 03:43:11;;;;;;;10.35;8.82;;;10.60;93.40;;;;;;5032790;28;20638;-41
2021/04/11 03:45:39;;;;;;;10.60;8.93;;;10.60;93.50;;;;;;5032657;28;20300;-41
2021/04/11 03:48:12;;;;;;;8.15;7.03;;;10.60;93.60;;;;;;5032709;28;20211;-45
2021/04/11 03:50:46;;;;;;;9.32;8.43;;;10.60;93.80;;;;;;5032622;28;20216;-41
2021/04/11 03:53:17;;;;;;;8.13;7.32;;;10.50;93.80;;;;;;5032444;28;20256;-41
2021/04/11 03:55:48;;;;;;;9.00;7.22;;;10.60;94.00;;;;;;5032569;28;20252;-42
2021/04/11 03:58:20;;;;;;;11.38;8.23;;;10.60;94.00;;;;;;5032452;28;20219;-40
2021/04/11 04:00:51;;;;;;;8.43;7.43;;;10.60;94.10;;;;;;5032233;28;20239;-40
2021/04/11 04:03:21;;;;;;;10.05;8.43;;;10.60;94.10;;;;;;5032284;28;20371;-41
2021/04/11 04:05:50;;;;;;;12.10;8.43;;;10.60;94.10;;;;;;5032161;28;20319;-40
2021/04/11 04:08:17;;;;;;;10.32;7.82;;;10.60;94.20;;;;;;5032113;28;20251;-40
2021/04/11 04:10:57;;;;;;;8.93;8.02;;;10.60;94.30;;;;;;5032155;28;20578;-40
2021/04/11 04:13:40;;;;;;;10.20;8.05;;;10.60;94.40;;;;;;5032216;28;20679;-39
2021/04/11 04:16:15;;;;;;;9.10;8.20;;;10.50;94.60;;;;;;5032442;28;20224;-40
2021/04/11 04:19:24;;;;;;;9.18;7.78;;;10.50;94.70;;;;;;5032332;28;20287;-42
2021/04/11 04:22:11;;;;;;;9.63;7.82;;;10.50;94.90;;;;;;4990589;28;20237;-41
2021/04/11 04:24:47;;;;;;;10.95;9.85;;;10.50;94.80;;;;;;4990704;28;20218;-45
2021/04/11 04:27:36;;;;;;;11.43;8.50;;;10.50;94.80;;;;;;5019762;28;20714;-45
2021/04/11 04:30:11;;;;;;;12.73;8.10;;;10.60;95.00;;;;;;5032131;28;20248;-43
2021/04/11 04:33:07;;;;;;;9.75;8.75;;;10.60;94.90;;;;;;5032004;28;20568;-43
2021/04/11 04:35:41;;;;;;;8.02;7.22;;;10.50;95.00;;;;;;5031974;28;20209;-47
2021/04/11 04:38:20;;;;;;;9.95;8.48;;;10.50;95.10;;;;;;5031753;28;20236;-44
2021/04/11 04:41:10;;;;;;;8.77;7.88;;;10.40;95.20;;;;;;5032189;28;20215;-45
2021/04/11 04:43:51;;;;;;;8.60;7.80;;;10.40;95.30;;;;;;5031982;28;20240;-42
2021/04/11 04:46:29;;;;;;;9.00;7.53;;;10.40;95.40;;;;;;5031937;28;20240;-42
2021/04/11 04:49:05;;;;;;;10.80;7.78;;;10.40;95.50;;;;;;5031773;28;20232;-46
2021/04/11 04:51:40;;;;;;;8.38;7.57;;;10.30;95.50;;;;;;5031881;28;20290;-42
2021/04/11 04:54:16;;;;;;;9.07;8.18;;;10.40;95.60;;;;;;5031889;28;20263;-42
2021/04/11 04:56:48;;;;;;;8.07;7.30;;;10.30;95.60;;;;;;5031810;28;20208;-46
2021/04/11 04:59:19;;;;;;;7.97;7.28;;;10.40;95.70;;;;;;5031959;28;20213;-42
2021/04/11 05:01:51;;;;;;;9.07;7.15;;;10.30;95.70;;;;;;5031730;28;20219;-42
2021/04/11 05:04:24;;;;;;;9.05;8.18;;;10.30;95.80;;;;;;5031962;28;20302;-40
2021/04/11 05:06:56;;;;;;;8.43;7.63;;;10.30;95.70;;;;;;5031681;28;20299;-42
2021/04/11 05:09:28;;;;;;;8.77;7.88;;;10.40;95.70;;;;;;5031938;28;20285;-40
2021/04/11 05:12:00;;;;;;;9.20;8.30;;;10.40;95.60;;;;;;5031823;28;20316;-40
2021/04/11 05:14:34;;;;;;;8.80;7.90;;;10.50;95.60;;;;;;5031658;28;20314;-39
2021/04/11 05:17:05;;;;;;;9.27;8.35;;;10.60;95.50;;;;;;5031737;28;20292;-41
2021/04/11 05:19:36;;;;;;;8.18;6.90;;;10.60;95.40;;;;;;5031576;28;20255;-41
2021/04/11 05:22:09;;;;;;;8.80;7.97;;;10.70;95.40;;;;;;5031219;28;20734;-40
2021/04/11 05:24:41;;;;;;;9.45;6.93;;;10.70;95.30;;;;;;5031263;28;20610;-41
2021/04/11 05:27:14;;;;;;;8.93;6.90;;;10.70;95.30;;;;;;5031075;28;20249;-42
2021/04/11 05:29:46;;;;;;;13.45;7.55;;;10.80;95.20;;;;;;5031242;28;20442;-40
2021/04/11 05:32:15;;;;;;;11.48;7.40;;;10.90;95.10;;;;;;5031210;28;20300;-40
2021/04/11 05:34:42;;;;;;;10.98;7.93;;;10.90;95.00;;;;;;5031405;28;20303;-40
2021/04/11 05:37:28;;;;;;;11.50;8.35;;;11.00;94.90;;;;;;5031203;28;20229;-39
2021/04/11 05:40:03;;;;;;;8.73;7.70;;;11.00;94.80;;;;;;5031121;28;20281;-39
2021/04/11 05:42:39;;;;;;;8.60;7.70;;;11.20;94.70;;;;;;5031183;28;20689;-40
2021/04/11 05:45:13;;;;;;;8.10;7.25;;;11.20;94.40;;;;;;5031172;28;20300;-40
2021/04/11 05:47:53;;;;;;;7.97;7.18;;;11.40;94.30;;;;;;5031348;28;20300;-40
2021/04/11 05:50:23;;;;;;;8.15;6.72;;;11.50;94.10;;;;;;5033560;28;20262;-40
2021/04/11 05:52:59;;;;;;;7.20;6.50;;;11.60;93.80;;;;;;5034746;28;20312;-40
2021/04/11 05:55:30;;;;;;;7.68;6.88;;;11.80;93.60;;;;;;5034889;28;20227;-39
2021/04/11 05:58:01;;;;;;;14.68;7.32;;;11.90;93.40;;;;;;5034931;28;20217;-39
2021/04/11 06:00:32;;;;;;;10.38;7.53;;;11.90;93.20;;;;;;5034758;28;20244;-39
2021/04/11 06:03:01;;;;;;;7.78;6.57;;;12.00;93.10;;;;;;5034673;28;20287;-39
2021/04/11 06:05:31;;;;;;;7.18;6.20;;;12.10;92.90;;;;;;5034672;28;20690;-41
2021/04/11 06:08:06;;;;;;;7.25;6.55;;;12.20;92.70;;;;;;5034593;28;20744;-38
2021/04/11 06:10:37;;;;;;;7.35;6.57;;;12.30;92.60;;;;;;5034669;28;20278;-40
2021/04/11 06:13:10;;;;;;;7.72;6.82;;;12.30;92.40;;;;;;5034498;28;20311;-39
2021/04/11 06:15:41;;;;;;;8.40;6.78;;;12.40;92.20;;;;;;5034528;28;20255;-39
2021/04/11 06:18:10;;;;;;;7.28;6.55;;;12.50;92.10;;;;;;5034372;28;20248;-39
2021/04/11 06:20:39;;;;;;;7.22;6.18;;;12.60;92.00;;;;;;5034536;28;20240;-39
2021/04/11 06:23:18;;;;;;;7.43;6.72;;;12.60;91.90;;;;;;5034274;28;20201;-39
2021/04/11 06:25:50;;;;;;;6.00;5.40;;;12.60;91.80;;;;;;5034321;28;20248;-39
2021/04/11 06:28:25;;;;;;;6.68;6.05;;;12.70;91.70;;;;;;5034206;28;20295;-39
2021/04/11 06:30:56;;;;;;;6.43;5.82;;;12.80;91.60;;;;;;5034159;28;20240;-39
2021/04/11 06:33:26;;;;;;;7.32;6.05;;;12.90;91.40;;;;;;5034254;28;20312;-40
2021/04/11 06:35:57;;;;;;;11.10;8.75;;;13.00;91.20;;;;;;5034096;28;20259;-43
2021/04/11 06:38:29;;;;;;;8.77;7.88;;;13.00;91.00;;;;;;5033835;28;20223;-41
2021/04/11 06:41:19;;;;;;;7.60;6.80;;;13.10;90.80;;;;;;5034038;28;20737;-41
2021/04/11 06:44:27;;;;;;;7.88;5.93;;;13.10;90.70;;;;;;5033866;28;20211;-40
2021/04/11 06:47:12;;;;;;;8.18;6.47;;;13.10;90.70;;;;;;5013611;28;20266;-40
2021/04/11 06:50:08;;;;;;;7.10;6.28;;;13.20;90.50;;;;;;5033946;28;20208;-41
2021/04/11 06:53:09;;;;;;;5.85;5.20;;;13.30;90.30;;;;;;5033809;28;20313;-42
2021/04/11 06:56:15;;;;;;;12.77;9.98;;;13.30;90.20;;;;;;5020772;28;20302;-41
2021/04/11 06:58:49;;;;;;;15.65;10.35;;;13.40;90.00;;;;;;5009374;28;20234;-41
2021/04/11 07:01:52;;;;;;;6.20;5.60;;;13.40;89.70;;;;;;5033031;28;20232;-42
2021/04/11 07:04:55;;;;;;;6.97;5.50;;;13.50;89.30;;;;;;5033621;28;20207;-41
2021/04/11 07:08:01;;;;;;;6.50;6.00;;;13.70;88.90;;;;;;5033588;28;20292;-40
2021/04/11 07:10:38;;;;;;;5.43;4.93;;;13.90;88.20;;;;;;5033482;28;20216;-41
2021/04/11 07:13:45;;;;;;;7.47;6.32;;;14.00;87.40;;;;;;5033498;28;20323;-41
2021/04/11 07:16:47;;;;;;;6.80;5.32;;;14.20;86.60;;;;;;5033419;28;20254;-42
2021/04/11 07:19:43;;;;;;;13.70;12.18;;;14.40;85.50;;;;;;5033352;28;20278;-41
2021/04/11 07:22:45;;;;;;;6.13;4.70;;;14.50;84.80;;;;;;5033032;28;20212;-41
2021/04/11 07:25:23;;;;;;;6.47;4.90;;;14.70;84.30;;;;;;5033200;28;20211;-41
2021/04/11 07:28:17;;;;;;;5.55;5.13;;;14.80;83.70;;;;;;5032683;28;20272;-41
2021/04/11 07:30:50;;;;;;;7.28;5.43;;;15.00;83.00;;;;;;5032559;28;20209;-41
2021/04/11 07:33:38;;;;;;;7.50;5.88;;;15.30;82.20;;;;;;5032837;28;20236;-41
2021/04/11 07:36:30;;;;;;;6.13;4.78;;;15.40;80.90;;;;;;5032555;28;20620;-42
2021/04/11 07:39:18;;;;;;;6.75;4.97;;;15.60;80.20;;;;;;5032613;28;20628;-41
2021/04/11 07:42:10;;;;;;;6.13;4.95;;;15.70;79.90;;;;;;5030980;28;20228;-42
2021/04/11 07:45:03;;;;;;;5.70;4.55;;;15.90;78.90;;;;;;5032442;28;20209;-43
2021/04/11 07:47:42;;;;;;;6.30;4.32;;;16.00;77.90;;;;;;5032251;28;20492;-42
2021/04/11 07:50:26;;;;;;;5.78;4.43;;;16.20;77.50;;;;;;5032374;28;20218;-42
2021/04/11 07:53:06;;;;;;;4.47;4.07;;;16.40;76.20;;;;;;5032323;28;20307;-42
2021/04/11 07:55:41;;;;;;;4.68;4.28;;;16.60;75.30;;;;;;5032201;28;20234;-42
2021/04/11 07:58:23;;;;;;;3.92;3.63;;;16.90;74.30;;;;;;5032399;28;20251;-42
2021/04/11 08:01:10;;;;;;;6.40;5.68;;;17.10;73.10;;;;;;5032212;28;20268;-42
2021/04/11 08:04:07;;;;;;;24.40;17.65;;;17.30;71.70;;;;;;5032235;28;20204;-43
2021/04/11 08:06:50;;;;;;;8.75;5.47;;;17.40;70.80;;;;;;5032323;28;20300;-43
2021/04/11 08:09:27;;;;;;;8.23;6.65;;;17.50;70.60;;;;;;5032290;28;20287;-41
2021/04/11 08:12:15;;;;;;;5.78;4.18;;;17.50;70.40;;;;;;5031574;28;20269;-43
2021/04/11 08:14:55;;;;;;;5.53;3.85;;;17.70;69.40;;;;;;5032342;28;20651;-41
2021/04/11 08:17:43;;;;;;;6.30;5.15;;;17.70;69.20;;;;;;5032287;28;20208;-41
2021/04/11 08:20:33;;;;;;;4.22;2.88;;;17.80;68.80;;;;;;5032123;28;20642;-41
2021/04/11 08:23:42;;;;;;;5.30;4.80;;;17.80;68.30;;;;;;5032373;28;20204;-41
2021/04/11 08:26:26;;;;;;;3.42;3.05;;;18.00;67.30;;;;;;4999325;28;20596;-42
2021/04/11 08:29:16;;;;;;;6.05;3.35;;;18.30;66.70;;;;;;5031838;28;20299;-41
2021/04/11 08:32:13;;;;;;;2.30;2.10;;;18.50;65.90;;;;;;5031816;28;20248;-41
2021/04/11 08:35:11;;;;;;;3.53;2.58;;;18.60;64.50;;;;;;5031629;28;20321;-41
2021/04/11 08:38:18;;;;;;;3.60;2.60;;;18.90;63.20;;;;;;5031985;28;20227;-42
2021/04/11 08:41:13;;;;;;;4.38;3.13;;;19.10;62.00;;;;;;5031726;28;20570;-42
2021/04/11 08:44:05;;;;;;;3.45;2.83;;;19.20;61.30;;;;;;5023109;28;20244;-41
2021/04/11 08:46:49;;;;;;;2.97;2.55;;;19.20;61.00;;;;;;5031671;28;20215;-42
2021/04/11 08:49:22;;;;;;;3.65;2.47;;;19.30;60.30;;;;;;5031537;28;20216;-42
2021/04/11 08:52:00;;;;;;;3.45;2.83;;;19.50;59.90;;;;;;5031326;28;20555;-42
2021/04/11 08:54:46;;;;;;;3.00;2.60;;;19.60;59.50;;;;;;5031788;28;20229;-42
2021/04/11 08:57:20;;;;;;;3.20;2.67;;;19.70;58.90;;;;;;5031843;28;20236;-41
2021/04/11 08:59:56;;;;;;;3.13;2.40;;;19.80;58.60;;;;;;5031872;28;20244;-42
2021/04/11 09:02:40;;;;;;;2.90;2.38;;;19.90;57.90;;;;;;5031468;28;20338;-42
2021/04/11 09:05:18;;;;;;;3.70;2.78;;;20.10;57.60;;;;;;5031750;28;20671;-42
2021/04/11 09:08:04;;;;;;;2.88;2.47;;;20.10;56.40;;;;;;5031774;28;20208;-42
2021/04/11 09:10:43;;;;;;;2.78;2.50;;;20.00;55.90;;;;;;5031451;28;20240;-43
2021/04/11 09:13:22;;;;;;;2.60;2.40;;;19.90;56.20;;;;;;5031373;28;20224;-42
2021/04/11 09:16:00;;;;;;;3.90;2.40;;;19.80;56.30;;;;;;5031437;28;20231;-43
2021/04/11 09:18:50;;;;;;;1.92;1.83;;;19.90;55.90;;;;;;5031591;28;20773;-44
2021/04/11 09:21:48;;;;;;;4.57;2.40;;;19.90;55.40;;;;;;5030216;28;20208;-42
2021/04/11 09:24:20;;;;;;;2.17;1.90;;;19.90;55.00;;;;;;5033554;28;20205;-43
2021/04/11 09:27:09;;;;;;;5.18;2.10;;;20.00;54.90;;;;;;5035236;28;20248;-41
2021/04/11 09:29:48;;;;;;;6.72;2.53;;;20.20;54.50;;;;;;5034972;28;20672;-44
2021/04/11 09:32:34;;;;;;;3.30;2.13;;;20.20;54.20;;;;;;5035230;28;20290;-41
2021/04/11 09:35:17;;;;;;;3.70;2.97;;;20.30;54.00;;;;;;5034986;28;20241;-41
2021/04/11 09:38:02;;;;;;;3.50;2.97;;;20.60;53.70;;;;;;5034660;28;20208;-41
2021/04/11 09:40:42;;;;;;;5.47;2.50;;;20.80;53.20;;;;;;5034749;28;20307;-41
2021/04/11 09:43:33;;;;;;;2.92;2.20;;;21.00;53.30;;;;;;5034702;28;20216;-41
2021/04/11 09:46:36;;;;;;;5.10;2.42;;;21.10;52.00;;;;;;5034638;28;20291;-40
2021/04/11 09:49:27;;;;;;;2.78;2.47;;;20.80;52.50;;;;;;5034728;28;20241;-41
2021/04/11 09:52:12;;;;;;;3.00;2.50;;;20.70;52.60;;;;;;5029600;28;20213;-41
2021/04/11 09:54:44;;;;;;;3.38;2.50;;;20.70;52.50;;;;;;5034705;28;20315;-41
2021/04/11 09:57:26;;;;;;;4.22;2.58;;;20.60;52.50;;;;;;5034912;28;20221;-42
2021/04/11 10:00:04;;;;;;;2.47;2.30;;;20.50;52.20;;;;;;5034513;28;20307;-42
2021/04/11 10:02:39;;;;;;;3.13;2.10;;;20.50;52.50;;;;;;5034411;28;20295;-42
2021/04/11 10:05:20;;;;;;;4.05;2.42;;;20.50;52.20;;;;;;5034755;28;20266;-41
2021/04/11 10:08:09;;;;;;;6.43;5.00;;;20.50;52.20;;;;;;5034538;28;20213;-42
2021/04/11 10:11:09;;;;;;;4.72;2.67;;;20.60;52.40;;;;;;5034610;28;20209;-44
2021/04/11 10:14:04;;;;;;;5.93;3.60;;;20.70;52.00;;;;;;5034189;28;20281;-43
2021/04/11 10:16:36;;;;;;;7.40;3.05;;;20.80;51.70;;;;;;5034113;28;20236;-42
2021/04/11 10:19:48;;;;;;;6.22;3.13;;;20.70;51.90;;;;;;5033854;28;20610;-42
2021/04/11 10:22:30;;;;;;;3.60;2.75;;;20.80;52.30;;;;;;5017571;28;20213;-42
2021/04/11 10:25:07;;;;;;;3.22;2.83;;;20.90;52.40;;;;;;4994575;28;20207;-42
2021/04/11 10:27:40;;;;;;;4.45;4.05;;;20.90;52.10;;;;;;4994423;28;20237;-42
2021/04/11 10:30:11;;;;;;;5.80;3.33;;;20.90;52.20;;;;;;4994536;28;20298;-42
2021/04/11 10:32:46;;;;;;;4.20;3.80;;;20.90;52.10;;;;;;4994340;28;20646;-42
2021/04/11 10:35:20;;;;;;;3.65;2.80;;;20.90;52.20;;;;;;4993400;28;20230;-42
2021/04/11 10:37:54;;;;;;;3.15;2.85;;;20.70;52.20;;;;;;4994263;28;20537;-41
2021/04/11 10:40:44;;;;;;;4.72;3.35;;;20.50;52.30;;;;;;4994286;28;20217;-42
2021/04/11 10:43:25;;;;;;;3.08;2.67;;;20.40;52.20;;;;;;4994448;28;20632;-42
2021/04/11 10:45:58;;;;;;;3.05;2.65;;;20.40;52.30;;;;;;4994580;28;20585;-41
2021/04/11 10:48:52;;;;;;;2.92;2.60;;;20.60;52.10;;;;;;4994206;28;20241;-44
2021/04/11 10:51:49;;;;;;;2.45;2.17;;;20.80;51.40;;;;;;4994381;28;20241;-42
2021/04/11 10:54:44;;;;;;;3.40;3.10;;;20.80;51.20;;;;;;4994160;28;20268;-42
2021/04/11 10:57:38;;;;;;;6.50;2.90;;;21.00;51.10;;;;;;4994276;28;20236;-42
2021/04/11 11:00:15;;;;;;;3.22;2.47;;;21.20;50.50;;;;;;4994150;28;20276;-43
2021/04/11 11:03:21;;;;;;;9.50;5.68;;;21.10;50.70;;;;;;4993934;28;20297;-43
2021/04/11 11:06:10;;;;;;;6.00;4.50;;;21.10;50.50;;;;;;4992152;28;20248;-43
2021/04/11 11:08:57;;;;;;;2.72;2.53;;;21.00;50.40;;;;;;4994143;28;20214;-41
2021/04/11 11:11:56;;;;;;;5.65;4.00;;;21.00;50.40;;;;;;4994042;28;20293;-43
2021/04/11 11:14:56;;;;;;;2.42;2.10;;;20.90;50.20;;;;;;4982278;28;20269;-45
2021/04/11 11:18:01;;;;;;;1.73;1.40;;;20.70;50.20;;;;;;4993663;28;20297;-45
2021/04/11 11:20:32;;;;;;;4.32;3.55;;;20.70;50.10;;;;;;4978973;28;20214;-42
2021/04/11 11:23:26;;;;;;;7.25;4.75;;;20.70;49.90;;;;;;4993568;28;20767;-44
2021/04/11 11:26:06;;;;;;;3.45;2.80;;;20.70;49.50;;;;;;4993251;28;20254;-42
2021/04/11 11:29:05;;;;;;;5.25;3.45;;;20.90;49.00;;;;;;4993898;28;20297;-44
2021/04/11 11:31:38;;;;;;;2.92;1.83;;;21.00;48.30;;;;;;4993337;28;20313;-43
2021/04/11 11:34:18;;;;;;;2.42;2.22;;;21.00;48.20;;;;;;4993457;28;20230;-43
2021/04/11 11:36:50;;;;;;;4.40;3.05;;;21.00;47.90;;;;;;4993366;28;20738;-42
2021/04/11 11:39:26;;;;;;;5.55;3.72;;;20.90;48.00;;;;;;4993785;28;20301;-43
2021/04/11 11:42:02;;;;;;;1.67;1.40;;;20.90;47.90;;;;;;4993693;28;20304;-44
2021/04/11 11:44:35;;;;;;;2.50;1.10;;;20.90;47.60;;;;;;4993588;28;20251;-45
2021/04/11 11:47:13;;;;;;;2.05;1.20;;;20.90;47.10;;;;;;4993283;28;20245;-43
2021/04/11 11:49:49;;;;;;;2.95;1.63;;;20.80;47.20;;;;;;4993547;28;20249;-43
2021/04/11 11:52:22;;;;;;;6.50;3.92;;;20.70;47.20;;;;;;4993671;28;20407;-44
2021/04/11 11:55:04;;;;;;;1.98;1.77;;;20.70;47.50;;;;;;4993356;28;20304;-43
2021/04/11 11:57:41;;;;;;;2.45;2.25;;;20.80;47.70;;;;;;4993536;28;20617;-46
2021/04/11 12:00:17;;;;;;;3.47;2.47;;;20.80;47.80;;;;;;4993043;28;20593;-47
2021/04/11 12:02:50;;;;;;;2.10;1.90;;;20.80;47.60;;;;;;4993291;28;20206;-44
2021/04/11 12:05:23;;;;;;;2.38;1.92;;;20.90;47.60;;;;;;4993151;28;20292;-45
2021/04/11 12:08:01;;;;;;;5.97;5.47;;;21.00;47.50;;;;;;4993144;28;20248;-45
2021/04/11 12:10:31;;;;;;;6.47;5.97;;;21.10;47.20;;;;;;4992814;28;20685;-47
2021/04/11 12:13:31;;;;;;;2.38;2.17;;;21.20;47.30;;;;;;4992919;28;20206;-47
2021/04/11 12:16:06;;;;;;;4.22;2.35;;;21.40;47.00;;;;;;4992480;28;20293;-45
2021/04/11 12:18:50;;;;;;;2.60;2.40;;;21.50;46.70;;;;;;4993071;28;20579;-43
2021/04/11 12:21:21;;;;;;;2.35;1.80;;;21.70;46.50;;;;;;4992624;28;20615;-43
2021/04/11 12:23:57;;;;;;;6.03;2.40;;;21.90;46.20;;;;;;4992640;28;20269;-43
2021/04/11 12:26:26;;;;;;;2.20;2.00;;;22.10;46.00;;;;;;4992302;28;20265;-46
2021/04/11 12:28:55;;;;;;;2.63;1.92;;;22.20;45.70;;;;;;4992494;28;20634;-46
2021/04/11 12:31:29;;;;;;;3.53;2.25;;;22.20;45.70;;;;;;4992549;28;20214;-45
2021/04/11 12:34:06;;;;;;;4.05;2.42;;;22.10;45.70;;;;;;4992216;28;20233;-44
2021/04/11 12:36:46;;;;;;;3.90;3.53;;;22.10;46.00;;;;;;4992592;28;20300;-47
2021/04/11 12:39:21;;;;;;;3.38;1.85;;;22.10;45.40;;;;;;4992819;28;20241;-44
2021/04/11 12:42:00;;;;;;;1.60;1.40;;;22.20;45.30;;;;;;4992776;28;20296;-47
2021/04/11 12:44:35;;;;;;;2.47;1.80;;;22.20;45.60;;;;;;4992625;28;20224;-44
2021/04/11 12:47:13;;;;;;;3.28;1.83;;;22.30;44.80;;;;;;4992461;28;20209;-49
2021/04/11 12:49:51;;;;;;;2.00;1.73;;;22.20;44.70;;;;;;4992413;28;20241;-47
2021/04/11 12:52:26;;;;;;;1.80;1.48;;;22.30;44.50;;;;;;4992662;28;20328;-45
2021/04/11 12:55:01;;;;;;;2.13;1.50;;;22.40;44.00;;;;;;4992539;28;20236;-46
2021/04/11 12:57:32;;;;;;;2.83;1.60;;;22.40;43.90;;;;;;4992330;28;20288;-45
2021/04/11 13:00:05;;;;;;;4.25;1.45;;;22.40;43.70;;;;;;4996004;28;20210;-46
2021/04/11 13:02:43;;;;;;;2.78;2.40;;;22.50;43.50;;;;;;5015706;28;20644;-44
2021/04/11 13:05:15;;;;;;;2.15;1.92;;;22.60;43.30;;;;;;5015872;28;20211;-46
2021/04/11 13:07:49;;;;;;;2.13;1.92;;;22.60;43.30;;;;;;5016005;28;20292;-44
2021/04/11 13:10:24;;;;;;;2.47;1.85;;;22.50;43.20;;;;;;4996122;28;20233;-44
2021/04/11 13:13:00;;;;;;;4.45;3.65;;;22.30;43.70;;;;;;4996375;28;20223;-46
2021/04/11 13:15:33;;;;;;;1.80;1.58;;;22.30;43.80;;;;;;4996088;28;20573;-46
2021/04/11 13:18:16;;;;;;;3.40;2.08;;;22.20;43.90;;;;;;4996034;28;20244;-47
2021/04/11 13:20:56;;;;;;;1.75;1.40;;;22.10;43.90;;;;;;4996083;28;20217;-40
2021/04/11 13:23:28;;;;;;;1.63;1.50;;;22.00;44.30;;;;;;4996150;28;20245;-45
2021/04/11 13:26:03;;;;;;;4.32;3.17;;;22.00;44.30;;;;;;4995902;28;20329;-44
2021/04/11 13:28:35;;;;;;;1.92;1.42;;;21.90;44.50;;;;;;4995907;28;20227;-47
2021/04/11 13:31:09;;;;;;;2.38;1.40;;;21.90;44.30;;;;;;4995818;28;20641;-42
2021/04/11 13:33:50;;;;;;;7.22;5.80;;;21.80;44.30;;;;;;4995786;28;20665;-41
2021/04/11 13:36:29;;;;;;;3.58;3.10;;;21.80;44.30;;;;;;4996098;28;20582;-42